createdAt,value
2022-09-23T00:01:09.372Z,71.50
2022-09-23T00:03:38.675Z,71.60
2022-09-23T00:06:08.047Z,71.60
2022-09-23T00:08:35.122Z,71.60
2022-09-23T00:11:06.401Z,71.60
2022-09-23T00:13:34.039Z,71.70
2022-09-23T00:16:09.911Z,71.70
2022-09-23T00:18:36.861Z,71.70
2022-09-23T00:21:10.019Z,71.70
2022-09-23T00:23:37.588Z,71.70
2022-09-23T00:26:06.182Z,71.80
2022-09-23T00:28:33.113Z,71.90
2022-09-23T00:31:14.715Z,71.80
2022-09-23T00:33:41.551Z,71.90
2022-09-23T00:36:11.892Z,71.90
2022-09-23T00:38:38.733Z,71.90
2022-09-23T00:41:06.394Z,72.00
2022-09-23T00:43:54.570Z,72.10
2022-09-23T00:46:27.994Z,72.10
2022-09-23T00:49:02.917Z,72.20
2022-09-23T00:51:38.559Z,72.20
2022-09-23T00:54:06.602Z,72.30
2022-09-23T00:56:34.441Z,72.30
2022-09-23T00:59:01.862Z,72.40
2022-09-23T01:01:28.766Z,72.30
2022-09-23T01:03:56.980Z,72.40
2022-09-23T01:06:23.669Z,72.30
2022-09-23T01:08:51.001Z,72.80
2022-09-23T01:11:35.951Z,72.30
2022-09-23T01:14:31.280Z,72.40
2022-09-23T01:17:24.437Z,72.50
2022-09-23T01:20:24.759Z,72.40
2022-09-23T01:23:03.417Z,72.40
2022-09-23T01:25:53.398Z,72.50
2022-09-23T01:28:29.167Z,72.40
2022-09-23T01:31:11.298Z,72.50
2022-09-23T01:33:56.573Z,72.40
2022-09-23T01:36:29.551Z,72.50
2022-09-23T01:39:02.991Z,72.60
2022-09-23T01:41:48.115Z,72.60
2022-09-23T01:44:29.986Z,72.70
2022-09-23T01:47:35.600Z,72.70
2022-09-23T01:50:28.219Z,72.80
2022-09-23T01:52:58.029Z,72.80
2022-09-23T01:55:31.801Z,72.90
2022-09-23T01:58:13.383Z,72.80
2022-09-23T02:00:48.987Z,73.00
2022-09-23T02:03:19.537Z,73.00
2022-09-23T02:05:50.999Z,72.90
2022-09-23T02:08:22.085Z,73.10
2022-09-23T02:11:15.234Z,73.10
2022-09-23T02:13:47.473Z,73.10
2022-09-23T02:16:30.129Z,74.00
2022-09-23T02:19:09.843Z,73.10
2022-09-23T02:21:41.180Z,73.20
2022-09-23T02:24:17.032Z,73.30
2022-09-23T02:27:25.799Z,73.30
2022-09-23T02:30:13.732Z,73.40
2022-09-23T02:32:54.680Z,73.40
2022-09-23T02:35:33.451Z,73.50
2022-09-23T02:38:15.204Z,73.60
2022-09-23T02:40:53.109Z,73.50
2022-09-23T02:43:33.805Z,73.50
2022-09-23T02:46:01.381Z,73.60
2022-09-23T02:48:34.580Z,73.60
2022-09-23T02:51:03.577Z,73.70
2022-09-23T02:53:34.731Z,73.60
2022-09-23T02:56:02.459Z,73.80
2022-09-23T02:58:29.937Z,73.80
2022-09-23T03:01:07.943Z,73.80
2022-09-23T03:04:05.074Z,73.80
2022-09-23T03:07:02.815Z,73.80
2022-09-23T03:09:32.514Z,73.80
2022-09-23T03:12:21.466Z,73.80
2022-09-23T03:14:54.429Z,73.80
2022-09-23T03:17:34.282Z,73.80
2022-09-23T03:20:31.182Z,73.90
2022-09-23T03:23:02.349Z,73.90
2022-09-23T03:25:34.133Z,74.00
2022-09-23T03:28:02.243Z,74.00
2022-09-23T03:30:31.005Z,74.10
2022-09-23T03:33:00.267Z,74.10
2022-09-23T03:35:29.463Z,74.20
2022-09-23T03:38:07.123Z,74.20
2022-09-23T03:40:43.385Z,74.30
2022-09-23T03:43:12.749Z,74.30
2022-09-23T03:45:41.614Z,74.40
2022-09-23T03:48:08.654Z,74.30
2022-09-23T03:50:39.190Z,74.40
2022-09-23T03:53:06.865Z,74.40
2022-09-23T03:55:34.784Z,74.40
2022-09-23T03:58:03.137Z,74.40
2022-09-23T04:00:29.771Z,74.50
2022-09-23T04:02:57.164Z,74.60
2022-09-23T04:05:23.774Z,74.60
2022-09-23T04:07:51.075Z,74.70
2022-09-23T04:10:17.812Z,74.80
2022-09-23T04:12:44.845Z,74.80
2022-09-23T04:15:11.849Z,74.90
2022-09-23T04:17:38.545Z,74.90
2022-09-23T04:20:05.819Z,74.90
2022-09-23T04:22:35.062Z,75.00
2022-09-23T04:25:02.271Z,75.10
2022-09-23T04:27:28.912Z,75.10
2022-09-23T04:29:55.533Z,75.10
2022-09-23T04:32:22.240Z,75.10
2022-09-23T04:34:48.865Z,75.20
2022-09-23T04:37:15.500Z,75.20
2022-09-23T04:39:43.260Z,75.20
2022-09-23T04:42:09.878Z,75.30
2022-09-23T04:44:36.648Z,75.30
2022-09-23T04:47:04.278Z,75.30
2022-09-23T04:49:33.250Z,75.30
2022-09-23T04:51:59.877Z,75.40
2022-09-23T04:54:27.186Z,75.50
2022-09-23T04:56:53.846Z,75.50
2022-09-23T04:59:20.452Z,75.50
2022-09-23T05:01:47.179Z,75.60
2022-09-23T05:04:14.168Z,75.60
2022-09-23T05:06:43.896Z,75.60
2022-09-23T05:09:15.809Z,75.70
2022-09-23T05:11:43.427Z,75.70
2022-09-23T05:14:10.257Z,75.70
2022-09-23T05:16:37.671Z,75.80
2022-09-23T05:19:04.724Z,75.80
2022-09-23T05:21:31.369Z,75.90
2022-09-23T05:24:00.554Z,75.90
2022-09-23T05:26:29.990Z,75.80
2022-09-23T05:28:58.012Z,75.80
2022-09-23T05:31:27.511Z,75.80
2022-09-23T05:34:02.590Z,75.80
2022-09-23T05:36:36.936Z,75.80
2022-09-23T05:39:05.394Z,75.80
2022-09-23T05:41:33.076Z,75.80
2022-09-23T05:43:59.811Z,75.90
2022-09-23T05:46:28.505Z,75.90
2022-09-23T05:49:02.642Z,76.00
2022-09-23T05:51:31.288Z,76.00
2022-09-23T05:53:58.973Z,75.90
2022-09-23T05:56:27.570Z,75.90
2022-09-23T05:58:56.134Z,75.90
2022-09-23T06:01:25.817Z,75.90
2022-09-23T06:03:54.300Z,75.90
2022-09-23T06:06:27.982Z,75.90
2022-09-23T06:08:54.760Z,75.90
2022-09-23T06:11:22.546Z,75.90
2022-09-23T06:13:50.200Z,76.00
2022-09-23T06:16:16.958Z,75.90
2022-09-23T06:18:45.231Z,75.90
2022-09-23T06:21:16.886Z,75.80
2022-09-23T06:23:44.739Z,75.90
2022-09-23T06:26:14.360Z,75.90
2022-09-23T06:28:42.956Z,75.90
2022-09-23T06:31:15.361Z,75.80
2022-09-23T06:33:43.284Z,75.80
2022-09-23T06:36:10.731Z,75.80
2022-09-23T06:38:44.767Z,75.90
2022-09-23T06:41:12.290Z,75.80
2022-09-23T06:43:39.133Z,75.90
2022-09-23T06:46:07.379Z,75.90
2022-09-23T06:48:37.337Z,75.90
2022-09-23T06:51:07.170Z,75.90
2022-09-23T06:53:34.434Z,76.00
2022-09-23T06:56:04.119Z,76.00
2022-09-23T06:58:31.782Z,76.00
2022-09-23T07:01:07.098Z,76.00
2022-09-23T07:03:34.843Z,75.90
2022-09-23T07:06:02.338Z,75.80
2022-09-23T07:08:30.518Z,75.80
2022-09-23T07:10:59.460Z,75.80
2022-09-23T07:13:27.246Z,75.90
2022-09-23T07:15:58.327Z,75.90
2022-09-23T07:18:26.168Z,75.80
2022-09-23T07:20:54.588Z,75.70
2022-09-23T07:23:21.376Z,75.70
2022-09-23T07:25:49.428Z,75.60
2022-09-23T07:28:16.113Z,76.40
2022-09-23T07:30:56.835Z,75.40
2022-09-23T07:33:33.227Z,75.30
2022-09-23T07:36:04.880Z,75.40
2022-09-23T07:38:31.860Z,75.30
2022-09-23T07:41:10.802Z,75.10
2022-09-23T07:43:37.858Z,75.00
2022-09-23T07:46:08.240Z,75.00
2022-09-23T07:48:36.127Z,74.80
2022-09-23T07:51:11.390Z,74.80
2022-09-23T07:53:38.371Z,74.70
2022-09-23T07:56:08.206Z,74.80
2022-09-23T07:58:35.132Z,74.80
2022-09-23T08:01:07.137Z,75.00
2022-09-23T08:03:33.901Z,74.80
2022-09-23T08:06:05.333Z,74.70
2022-09-23T08:08:32.061Z,74.70
2022-09-23T08:11:06.879Z,74.60
2022-09-23T08:13:34.042Z,74.50
2022-09-23T08:16:00.947Z,74.30
2022-09-23T08:18:27.759Z,74.20
2022-09-23T08:20:54.464Z,73.70
2022-09-23T08:23:21.309Z,73.50
2022-09-23T08:25:48.195Z,73.40
2022-09-23T08:28:18.453Z,73.30
2022-09-23T08:30:48.204Z,72.90
2022-09-23T08:33:19.614Z,72.60
2022-09-23T08:35:49.474Z,72.40
2022-09-23T08:38:16.211Z,72.10
2022-09-23T08:40:47.381Z,72.10
2022-09-23T08:43:28.979Z,72.30
2022-09-23T08:46:00.411Z,72.10
2022-09-23T08:48:34.671Z,71.80
2022-09-23T08:51:13.850Z,71.70
2022-09-23T08:53:42.173Z,71.30
2022-09-23T08:56:16.361Z,71.40
2022-09-23T08:59:00.100Z,71.00
2022-09-23T09:01:26.909Z,70.90
2022-09-23T09:03:58.015Z,70.50
2022-09-23T09:06:52.415Z,70.40
2022-09-23T09:09:25.755Z,70.50
2022-09-23T09:12:15.500Z,70.30
2022-09-23T09:15:01.358Z,69.90
2022-09-23T09:18:17.987Z,69.90
2022-09-23T09:21:05.228Z,69.90
2022-09-23T09:23:55.347Z,70.00
2022-09-23T09:26:25.599Z,70.10
2022-09-23T09:29:17.233Z,70.00
2022-09-23T09:31:50.543Z,69.70
2022-09-23T09:35:09.691Z,69.40
2022-09-23T09:37:47.290Z,69.10
2022-09-23T09:40:16.977Z,69.30
2022-09-23T09:42:48.553Z,69.30
2022-09-23T09:45:19.792Z,69.20
2022-09-23T09:48:05.801Z,69.20
2022-09-23T09:50:44.533Z,68.90
2022-09-23T09:53:23.833Z,68.60
2022-09-23T09:56:04.859Z,68.10
2022-09-23T09:58:46.798Z,68.90
2022-09-23T10:01:25.372Z,68.30
2022-09-23T10:03:56.864Z,68.00
2022-09-23T10:06:27.872Z,68.30
2022-09-23T10:09:11.414Z,68.20
2022-09-23T10:11:39.404Z,68.30
2022-09-23T10:14:06.042Z,68.00
2022-09-23T10:16:34.450Z,68.20
2022-09-23T10:19:03.311Z,67.60
2022-09-23T10:21:36.148Z,67.30
2022-09-23T10:24:05.610Z,67.10
2022-09-23T10:26:42.808Z,67.30
2022-09-23T10:29:29.142Z,67.50
2022-09-23T10:32:28.548Z,66.80
2022-09-23T10:35:01.521Z,66.10
2022-09-23T10:37:32.820Z,66.00
2022-09-23T10:40:19.307Z,66.20
2022-09-23T10:43:07.679Z,66.00
2022-09-23T10:45:59.313Z,65.80
2022-09-23T10:48:43.147Z,65.90
2022-09-23T10:51:33.959Z,65.60
2022-09-23T10:54:36.177Z,65.80
2022-09-23T10:57:30.691Z,65.40
2022-09-23T11:00:08.494Z,66.30
2022-09-23T11:03:20.240Z,64.70
2022-09-23T11:06:05.201Z,63.80
2022-09-23T11:08:52.926Z,63.70
2022-09-23T11:11:39.373Z,63.90
2022-09-23T11:14:29.446Z,63.40
2022-09-23T11:17:31.032Z,63.00
2022-09-23T11:20:15.465Z,62.50
2022-09-23T11:23:20.173Z,62.10
2022-09-23T11:25:47.108Z,61.70
2022-09-23T11:28:50.619Z,61.70
2022-09-23T11:31:47.553Z,60.40
2022-09-23T11:34:52.640Z,61.20
2022-09-23T11:37:27.259Z,61.00
2022-09-23T11:39:56.848Z,61.00
2022-09-23T11:42:30.654Z,61.00
2022-09-23T11:45:07.115Z,60.40
2022-09-23T11:47:45.535Z,60.50
2022-09-23T11:50:34.927Z,60.50
2022-09-23T11:53:12.466Z,60.10
2022-09-23T11:55:57.967Z,59.40
2022-09-23T11:58:31.598Z,58.40
2022-09-23T12:01:10.200Z,59.00
2022-09-23T12:03:44.942Z,58.90
2022-09-23T12:06:24.700Z,58.80
2022-09-23T12:08:57.982Z,58.50
2022-09-23T12:11:27.465Z,58.80
2022-09-23T12:14:33.630Z,58.70
2022-09-23T12:17:18.264Z,58.90
2022-09-23T12:20:28.122Z,59.20
2022-09-23T12:23:06.043Z,58.10
2022-09-23T12:25:46.403Z,58.60
2022-09-23T12:28:18.908Z,58.50
2022-09-23T12:30:47.987Z,58.30
2022-09-23T12:33:24.774Z,58.80
2022-09-23T12:36:02.014Z,58.60
2022-09-23T12:38:48.939Z,58.40
2022-09-23T12:41:41.267Z,57.60
2022-09-23T12:44:11.032Z,58.10
2022-09-23T12:46:38.152Z,58.40
2022-09-23T12:49:21.412Z,58.60
2022-09-23T12:52:12.367Z,58.10
2022-09-23T12:54:40.615Z,58.00
2022-09-23T12:57:14.528Z,58.70
2022-09-23T12:59:59.168Z,58.20
2022-09-23T13:02:33.706Z,57.70
2022-09-23T13:05:27.997Z,58.00
2022-09-23T13:08:08.896Z,56.80
2022-09-23T13:10:55.298Z,56.10
2022-09-23T13:13:32.088Z,55.60
2022-09-23T13:16:21.610Z,56.30
2022-09-23T13:18:54.613Z,55.60
2022-09-23T13:21:42.903Z,56.30
2022-09-23T13:24:23.042Z,56.10
2022-09-23T13:27:13.222Z,56.50
2022-09-23T13:30:00.672Z,56.60
2022-09-23T13:32:34.280Z,56.00
2022-09-23T13:35:02.549Z,56.50
2022-09-23T13:37:48.264Z,56.60
2022-09-23T13:40:24.515Z,57.00
2022-09-23T13:43:00.881Z,57.50
2022-09-23T13:45:30.989Z,57.10
2022-09-23T13:48:11.989Z,57.20
2022-09-23T13:50:40.885Z,56.10
2022-09-23T13:53:11.372Z,56.20
2022-09-23T13:55:39.670Z,56.20
2022-09-23T13:58:24.363Z,56.10
2022-09-23T14:00:51.719Z,56.20
2022-09-23T14:03:36.777Z,56.50
2022-09-23T14:06:12.944Z,56.40
2022-09-23T14:08:44.471Z,56.20
2022-09-23T14:11:19.156Z,56.80
2022-09-23T14:13:48.728Z,57.00
2022-09-23T14:16:17.127Z,57.20
2022-09-23T14:18:57.169Z,57.50
2022-09-23T14:21:34.662Z,57.40
2022-09-23T14:24:22.411Z,57.50
2022-09-23T14:27:08.261Z,57.70
2022-09-23T14:29:38.726Z,58.00
2022-09-23T14:32:16.746Z,58.20
2022-09-23T14:34:46.618Z,58.50
2022-09-23T14:37:41.207Z,58.60
2022-09-23T14:40:18.182Z,58.60
2022-09-23T14:42:52.190Z,58.80
2022-09-23T14:45:22.685Z,58.90
2022-09-23T14:47:58.368Z,59.20
2022-09-23T14:50:39.172Z,59.30
2022-09-23T14:53:26.819Z,59.60
2022-09-23T14:56:06.637Z,59.80
2022-09-23T14:58:53.935Z,59.90
2022-09-23T15:01:32.659Z,59.90
2022-09-23T15:04:11.763Z,60.30
2022-09-23T15:06:40.656Z,60.40
2022-09-23T15:09:07.565Z,60.50
2022-09-23T15:11:36.036Z,60.80
2022-09-23T15:14:26.323Z,60.90
2022-09-23T15:16:53.440Z,61.10
2022-09-23T15:19:21.702Z,61.20
2022-09-23T15:21:54.288Z,61.30
2022-09-23T15:24:42.849Z,61.60
2022-09-23T15:27:27.835Z,61.90
2022-09-23T15:29:56.251Z,62.20
2022-09-23T15:32:22.967Z,62.40
2022-09-23T15:34:51.069Z,62.60
2022-09-23T15:37:17.760Z,62.80
2022-09-23T15:39:44.821Z,62.90
2022-09-23T15:42:11.815Z,63.20
2022-09-23T15:44:38.541Z,63.30
2022-09-23T15:47:05.466Z,63.50
2022-09-23T15:49:36.219Z,63.80
2022-09-23T15:52:05.176Z,63.90
2022-09-23T15:54:35.172Z,64.20
2022-09-23T15:57:02.062Z,64.50
2022-09-23T15:59:31.002Z,64.70
2022-09-23T16:02:03.221Z,65.00
2022-09-23T16:04:31.343Z,65.30
2022-09-23T16:06:59.033Z,65.50
2022-09-23T16:09:28.228Z,65.70
2022-09-23T16:11:55.051Z,65.90
2022-09-23T16:14:22.843Z,66.10
2022-09-23T16:16:49.531Z,66.50
2022-09-23T16:19:17.716Z,66.70
2022-09-23T16:21:44.696Z,67.10
2022-09-23T16:24:17.607Z,67.30
2022-09-23T16:26:46.754Z,67.50
2022-09-23T16:29:13.802Z,67.70
2022-09-23T16:31:40.702Z,68.10
2022-09-23T16:34:07.540Z,68.20
2022-09-23T16:36:40.993Z,68.40
2022-09-23T16:39:11.105Z,68.70
2022-09-23T16:41:38.175Z,69.00
2022-09-23T16:44:07.360Z,69.30
2022-09-23T16:46:34.907Z,69.40
2022-09-23T16:49:01.706Z,69.60
2022-09-23T16:51:30.880Z,69.80
2022-09-23T16:53:59.387Z,69.90
2022-09-23T16:56:29.461Z,70.00
2022-09-23T16:58:56.861Z,70.10
2022-09-23T17:01:47.300Z,70.50
2022-09-23T17:04:15.999Z,70.70
2022-09-23T17:06:44.037Z,70.80
2022-09-23T17:09:12.059Z,70.90
2022-09-23T17:11:38.734Z,71.00
2022-09-23T17:14:05.753Z,71.20
2022-09-23T17:16:33.708Z,71.30
2022-09-23T17:19:06.210Z,71.40
2022-09-23T17:21:33.132Z,71.50
2022-09-23T17:23:59.848Z,71.60
2022-09-23T17:26:27.202Z,71.70
2022-09-23T17:28:55.218Z,71.80
2022-09-23T17:31:23.474Z,72.00
2022-09-23T17:33:51.148Z,72.10
2022-09-23T17:36:18.849Z,72.20
2022-09-23T17:38:47.186Z,72.20
2022-09-23T17:41:14.945Z,72.40
2022-09-23T17:43:41.670Z,72.40
2022-09-23T17:46:11.253Z,72.60
2022-09-23T17:48:41.222Z,72.70
2022-09-23T17:51:12.234Z,72.80
2022-09-23T17:53:40.752Z,73.00
2022-09-23T17:56:19.293Z,73.10
2022-09-23T17:58:47.278Z,73.20
2022-09-23T18:01:19.984Z,73.20
2022-09-23T18:03:47.343Z,73.40
2022-09-23T18:06:19.907Z,73.40
2022-09-23T18:08:48.898Z,73.40
2022-09-23T18:11:27.130Z,73.50
2022-09-23T18:13:59.488Z,73.60
2022-09-23T18:16:28.858Z,73.60
2022-09-23T18:18:57.803Z,73.70
2022-09-23T18:21:26.996Z,73.80
2022-09-23T18:23:53.959Z,73.90
2022-09-23T18:26:22.825Z,73.90
2022-09-23T18:28:52.877Z,74.00
2022-09-23T18:31:20.490Z,74.10
2022-09-23T18:33:51.715Z,74.20
2022-09-23T18:36:22.779Z,74.30
2022-09-23T18:38:50.490Z,74.30
2022-09-23T18:41:18.081Z,74.40
2022-09-23T18:43:48.372Z,74.50
2022-09-23T18:46:18.402Z,74.70
2022-09-23T18:49:03.628Z,74.80
2022-09-23T18:51:31.944Z,74.90
2022-09-23T18:54:01.212Z,74.90
2022-09-23T18:56:34.533Z,74.90
2022-09-23T18:59:01.198Z,75.90
2022-09-23T19:01:28.033Z,75.10
2022-09-23T19:03:59.218Z,75.10
2022-09-23T19:06:26.473Z,75.20
2022-09-23T19:08:54.518Z,75.20
2022-09-23T19:11:22.102Z,75.30
2022-09-23T19:13:54.761Z,75.30
2022-09-23T19:16:22.751Z,75.50
2022-09-23T19:18:50.725Z,75.60
2022-09-23T19:21:23.053Z,75.90
2022-09-23T19:23:55.907Z,76.00
2022-09-23T19:26:25.911Z,76.10
2022-09-23T19:28:56.940Z,76.30
2022-09-23T19:31:26.081Z,76.30
2022-09-23T19:33:57.807Z,76.30
2022-09-23T19:36:30.856Z,76.40
2022-09-23T19:39:05.616Z,76.40
2022-09-23T19:41:33.483Z,76.50
2022-09-23T19:44:07.140Z,76.50
2022-09-23T19:46:36.887Z,76.50
2022-09-23T19:49:05.649Z,76.50
2022-09-23T19:51:36.681Z,76.60
2022-09-23T19:54:05.371Z,76.60
2022-09-23T19:56:33.122Z,76.60
2022-09-23T19:59:00.695Z,76.60
2022-09-23T20:01:29.469Z,76.60
2022-09-23T20:03:56.788Z,76.90
2022-09-23T20:06:23.691Z,76.90
2022-09-23T20:08:50.761Z,77.00
2022-09-23T20:11:27.646Z,77.00
2022-09-23T20:14:04.819Z,77.10
2022-09-23T20:16:34.917Z,77.10
2022-09-23T20:19:03.130Z,77.10
2022-09-23T20:21:30.131Z,77.20
2022-09-23T20:23:57.641Z,77.20
2022-09-23T20:26:43.381Z,77.30
2022-09-23T20:29:10.988Z,77.30
2022-09-23T20:31:37.784Z,77.40
2022-09-23T20:34:06.923Z,77.50
2022-09-23T20:36:35.331Z,77.50
2022-09-23T20:39:05.686Z,77.50
2022-09-23T20:41:35.729Z,77.50
2022-09-23T20:44:03.123Z,77.90
2022-09-23T20:46:30.222Z,77.70
2022-09-23T20:48:58.008Z,77.60
2022-09-23T20:51:25.440Z,77.70
2022-09-23T20:53:52.860Z,77.70
2022-09-23T20:56:21.384Z,77.80
2022-09-23T20:58:50.340Z,77.90
2022-09-23T21:01:17.442Z,77.90
2022-09-23T21:03:46.044Z,77.90
2022-09-23T21:06:14.934Z,77.90
2022-09-23T21:08:43.460Z,77.90
2022-09-23T21:11:15.750Z,78.20
2022-09-23T21:13:50.756Z,78.10
2022-09-23T21:16:19.944Z,78.30
2022-09-23T21:18:48.008Z,78.40
2022-09-23T21:21:19.165Z,78.50
2022-09-23T21:23:46.673Z,78.50
2022-09-23T21:26:24.593Z,78.50
2022-09-23T21:28:53.492Z,78.50
2022-09-23T21:31:23.367Z,78.50
2022-09-23T21:34:07.634Z,78.50
2022-09-23T21:36:39.229Z,78.50
2022-09-23T21:39:07.819Z,78.60
2022-09-23T21:41:34.791Z,78.60
2022-09-23T21:44:04.629Z,78.70
2022-09-23T21:46:33.792Z,78.70
2022-09-23T21:49:03.796Z,78.80
2022-09-23T21:51:37.549Z,78.70
2022-09-23T21:54:05.590Z,78.90
2022-09-23T21:56:35.175Z,78.90
2022-09-23T21:59:02.056Z,78.90
2022-09-23T22:01:33.119Z,79.00
2022-09-23T22:04:05.202Z,79.00
2022-09-23T22:06:32.602Z,79.10
2022-09-23T22:09:10.061Z,79.20
2022-09-23T22:11:56.619Z,79.30
2022-09-23T22:14:27.156Z,79.40
2022-09-23T22:16:59.010Z,79.30
2022-09-23T22:19:28.155Z,79.40
2022-09-23T22:21:56.104Z,79.60
2022-09-23T22:24:23.095Z,79.70
2022-09-23T22:26:49.922Z,79.70
2022-09-23T22:29:49.087Z,79.60
2022-09-23T22:32:55.312Z,79.60
2022-09-23T22:35:22.195Z,79.60
2022-09-23T22:37:48.878Z,79.70
2022-09-23T22:40:16.037Z,79.70
2022-09-23T22:42:43.570Z,79.70
2022-09-23T22:45:11.319Z,79.80
2022-09-23T22:47:39.717Z,79.90
2022-09-23T22:50:08.609Z,80.00
2022-09-23T22:52:35.734Z,80.10
2022-09-23T22:55:03.628Z,80.10
2022-09-23T22:57:31.191Z,80.10
2022-09-23T22:59:57.824Z,80.10
2022-09-23T23:02:24.490Z,80.20
2022-09-23T23:04:51.450Z,80.30
2022-09-23T23:07:20.970Z,80.40
2022-09-23T23:09:51.386Z,80.50
2022-09-23T23:12:21.316Z,80.60
2022-09-23T23:14:48.941Z,80.60
2022-09-23T23:17:16.246Z,80.60
2022-09-23T23:19:42.860Z,80.60
2022-09-23T23:22:09.478Z,80.60
2022-09-23T23:24:36.378Z,80.70
2022-09-23T23:27:03.035Z,80.70
2022-09-23T23:29:29.633Z,80.80
2022-09-23T23:31:56.279Z,80.90
2022-09-23T23:34:23.102Z,80.90
2022-09-23T23:36:56.360Z,81.00
2022-09-23T23:39:24.552Z,81.20
2022-09-23T23:41:55.462Z,81.20
2022-09-23T23:44:23.831Z,81.20
2022-09-23T23:46:51.042Z,81.20
2022-09-23T23:49:17.802Z,81.40
2022-09-23T23:51:44.753Z,81.40
2022-09-23T23:54:12.110Z,81.40
2022-09-23T23:56:38.888Z,81.50
2022-09-23T23:59:05.575Z,81.50
